Time;durP1;ratioP1;P1;durP2;ratioP2;P2;SDS_P1;SDS_P2;PMS_P1;PMS_P2;Temp;Humidity;BMP_temperature;BMP_pressure;BME280_temperature;BME280_humidity;BME280_pressure;Samples;Min_cycle;Max_cycle;Signal;HPM_P1;HPM_P2
2022/09/21 00:01:30;;;;;;;4.15;1.25;;;8.80;99.90;;;7.32;100.00;101955.63;4994702;28;20026;-81
2022/09/21 00:04:02;;;;;;;1.30;0.50;;;8.60;99.90;;;7.33;100.00;101966.97;5013667;28;20057;-82
2022/09/21 00:06:36;;;;;;;2.78;0.85;;;8.60;99.90;;;7.30;100.00;101967.00;4997800;28;20023;-81
2022/09/21 00:09:03;;;;;;;3.70;0.70;;;8.60;99.90;;;7.25;100.00;101964.44;4999088;28;20015;-81
2022/09/21 00:11:37;;;;;;;0.50;0.40;;;8.60;99.90;;;7.23;100.00;101970.59;4995371;28;20614;-80
2022/09/21 00:14:20;;;;;;;3.65;0.68;;;8.50;99.90;;;7.15;100.00;101966.31;5014285;28;20033;-82
2022/09/21 00:16:46;;;;;;;1.50;0.70;;;8.50;99.90;;;7.11;100.00;101964.63;4997298;28;20034;-83
2022/09/21 00:19:12;;;;;;;2.05;0.63;;;8.50;99.90;;;7.11;100.00;101967.25;4981543;28;20046;-81
2022/09/21 00:21:38;;;;;;;1.38;0.63;;;8.40;99.90;;;7.02;100.00;101964.75;4994338;28;20018;-82
2022/09/21 00:24:05;;;;;;;0.70;0.57;;;8.40;99.90;;;7.01;100.00;101964.75;5011705;28;20082;-82
2022/09/21 00:26:34;;;;;;;2.10;0.70;;;;;;;7.04;100.00;101957.75;4995398;28;20034;-81
2022/09/21 00:29:02;;;;;;;1.08;0.65;;;8.40;99.90;;;7.05;100.00;101971.69;4996786;28;20129;-80
2022/09/21 00:31:30;;;;;;;1.00;0.50;;;8.40;99.90;;;7.03;100.00;101969.09;4997981;28;20030;-81
2022/09/21 00:34:02;;;;;;;4.07;0.63;;;8.30;99.90;;;6.97;100.00;101963.91;4980076;28;20038;-83
2022/09/21 00:36:28;;;;;;;2.67;0.82;;;8.30;99.90;;;6.95;100.00;101965.69;4980396;28;20126;-82
2022/09/21 00:39:08;;;;;;;2.05;0.47;;;8.30;99.90;;;6.95;100.00;101970.94;4996287;28;20062;-83
2022/09/21 00:41:34;;;;;;;1.00;0.70;;;8.30;99.90;;;6.99;100.00;101972.63;4996236;28;20036;-83
2022/09/21 00:44:26;;;;;;;2.10;0.80;;;8.30;99.90;;;7.03;100.00;101979.56;4998134;28;20113;-82
2022/09/21 00:46:55;;;;;;;0.90;0.70;;;8.30;99.90;;;7.01;100.00;101970.00;4994925;28;20037;-82
2022/09/21 00:49:23;;;;;;;0.90;0.55;;;;;;;7.01;100.00;101973.47;4995586;28;20104;-82
2022/09/21 00:51:57;;;;;;;1.00;0.50;;;;;;;7.03;100.00;101968.22;4998858;28;20035;-82
2022/09/21 00:54:31;;;;;;;0.90;0.63;;;8.30;99.90;;;7.06;100.00;101978.66;5014079;28;20034;-83
2022/09/21 00:57:01;;;;;;;0.93;0.73;;;8.30;99.90;;;7.02;100.00;101972.59;5011039;28;20050;-82
2022/09/21 00:59:31;;;;;;;0.98;0.68;;;8.30;99.90;;;7.04;100.00;101976.06;4996052;28;20080;-82
2022/09/21 01:02:07;;;;;;;1.48;0.80;;;8.30;99.90;;;7.05;100.00;101983.03;5006958;28;21080;-82
2022/09/21 01:04:35;;;;;;;0.68;0.50;;;8.30;99.90;;;7.01;100.00;101981.34;4982187;28;20046;-82
2022/09/21 01:07:07;;;;;;;40.33;2.17;;;8.30;99.90;;;6.98;100.00;101969.16;4981085;28;20561;-81
2022/09/21 01:09:33;;;;;;;0.70;0.50;;;8.30;99.90;;;6.94;100.00;101974.44;4992729;28;20199;-82
2022/09/21 01:12:25;;;;;;;0.75;0.52;;;8.30;99.90;;;6.91;100.00;101975.34;4980422;28;21105;-81
2022/09/21 01:15:38;;;;;;;0.45;0.45;;;8.20;99.90;;;6.89;100.00;101979.75;5013729;28;20573;-81
2022/09/21 01:18:50;;;;;;;3.72;0.55;;;8.20;99.90;;;6.87;100.00;101980.63;4996548;28;20022;-83
2022/09/21 01:21:30;;;;;;;0.30;0.30;;;8.20;99.90;;;6.87;100.00;101978.88;4994199;28;20041;-81
2022/09/21 01:24:29;;;;;;;4.45;0.75;;;8.20;99.90;;;6.92;100.00;101991.91;4980173;28;20042;-82
2022/09/21 01:27:24;;;;;;;0.85;0.65;;;8.30;99.90;;;6.94;100.00;101987.53;4997664;28;20027;-82
2022/09/21 01:30:20;;;;;;;5.28;1.17;;;8.30;99.90;;;6.98;100.00;101989.25;5016472;28;20040;-81
2022/09/21 01:33:19;;;;;;;1.20;0.38;;;8.30;99.90;;;7.00;100.00;101995.31;4993748;28;20039;-83
2022/09/21 01:35:58;;;;;;;3.80;1.10;;;8.20;99.90;;;6.94;100.00;101984.91;4987053;28;20070;-81
2022/09/21 01:38:33;;;;;;;7.40;1.02;;;8.20;99.90;;;6.91;100.00;101990.16;4999363;28;20306;-83
2022/09/21 01:41:05;;;;;;;4.30;1.20;;;8.20;99.90;;;6.89;100.00;101991.94;5017502;28;20098;-82
2022/09/21 01:43:46;;;;;;;2.20;1.40;;;8.20;99.90;;;6.87;100.00;101993.69;4984072;28;20113;-82
2022/09/21 01:46:19;;;;;;;3.00;1.05;;;8.10;99.90;;;6.87;100.00;101991.97;4998339;28;20026;-81
2022/09/21 01:48:54;;;;;;;5.43;1.40;;;8.10;99.90;;;6.82;100.00;101985.03;4997370;28;20019;-82
2022/09/21 01:51:21;;;;;;;2.25;1.15;;;8.10;99.90;;;6.78;100.00;101987.72;4983758;28;20030;-81
2022/09/21 01:54:00;;;;;;;3.67;1.10;;;8.10;99.90;;;6.75;100.00;101984.25;5000596;28;20023;-83
2022/09/21 01:56:46;;;;;;;1.98;1.10;;;8.10;99.90;;;6.71;100.00;101982.53;5000534;28;20029;-83
2022/09/21 01:59:46;;;;;;;3.37;1.63;;;8.00;99.90;;;6.68;100.00;101987.81;4998351;28;20026;-81
2022/09/21 02:02:19;;;;;;;3.70;1.52;;;8.00;99.90;;;6.63;100.00;101995.72;4982743;28;20510;-82
2022/09/21 02:04:45;;;;;;;7.32;2.00;;;7.90;99.90;;;6.61;100.00;101994.88;4998976;28;20080;-81
2022/09/21 02:07:11;;;;;;;33.00;1.30;;;7.90;99.90;;;6.55;100.00;101992.31;4998361;28;20534;-81
2022/09/21 02:09:38;;;;;;;3.17;0.70;;;7.80;99.90;;;6.43;100.00;101982.81;4997520;28;20050;-83
2022/09/21 02:12:04;;;;;;;3.85;0.50;;;7.70;99.90;;;6.33;100.00;101989.88;4984125;28;20093;-82
2022/09/21 02:14:38;;;;;;;28.23;1.77;;;7.60;99.90;;;6.20;100.00;101988.25;4998610;28;20041;-83
2022/09/21 02:17:22;;;;;;;21.13;0.80;;;;;;;6.08;100.00;101985.75;5000541;28;20053;-83
2022/09/21 02:20:26;;;;;;;0.50;0.30;;;7.40;99.90;;;5.98;100.00;101986.69;4998637;28;20035;-82
2022/09/21 02:23:22;;;;;;;169.52;4.25;;;7.30;99.90;;;5.90;100.00;101982.34;5012481;28;20042;-82
2022/09/21 02:26:06;;;;;;;1999.90;999.90;;;7.30;99.90;;;5.89;100.00;101984.97;5000989;28;20040;-82
2022/09/21 02:28:59;;;;;;;1999.90;999.90;;;7.30;99.90;;;5.89;100.00;101990.19;5014655;28;20018;-82
2022/09/21 02:31:55;;;;;;;4.93;4.63;;;7.20;99.90;;;5.86;100.00;101985.84;5000443;28;20026;-82
2022/09/21 02:34:44;;;;;;;0.88;0.60;;;7.20;99.90;;;5.84;100.00;101985.00;4982313;28;20034;-82
2022/09/21 02:37:39;;;;;;;2.47;1.70;;;7.20;99.90;;;5.86;100.00;101985.84;5000646;28;20093;-82
2022/09/21 02:40:35;;;;;;;1999.90;999.90;;;7.20;99.90;;;5.87;100.00;101986.72;4996669;28;20046;-82
2022/09/21 02:43:15;;;;;;;1999.90;999.90;;;7.20;99.90;;;5.88;100.00;101988.47;5012803;28;20038;-82
2022/09/21 02:45:54;;;;;;;1999.90;999.90;;;7.20;99.90;;;5.89;100.00;101996.28;5009104;28;20033;-82
2022/09/21 02:48:40;;;;;;;1999.90;999.90;;;7.20;99.90;;;5.89;100.00;101993.66;4997298;28;20392;-82
2022/09/21 02:51:13;;;;;;;1999.90;999.90;;;7.20;99.90;;;5.88;100.00;101994.56;4997556;28;20022;-83
2022/09/21 02:53:49;;;;;;;1999.90;999.90;;;7.20;99.90;;;5.88;100.00;102005.03;4982429;28;20042;-82
2022/09/21 02:56:15;;;;;;;1999.90;999.90;;;7.20;99.90;;;5.85;100.00;102005.06;4994706;28;20127;-83
2022/09/21 02:58:55;;;;;;;1999.90;999.90;;;7.20;99.90;;;5.85;100.00;101998.94;4980767;28;20038;-82
2022/09/21 03:01:31;;;;;;;1999.90;999.90;;;7.20;99.90;;;5.85;100.00;102005.06;4995905;28;20093;-82
2022/09/21 03:03:57;;;;;;;1999.90;999.90;;;7.10;99.90;;;5.83;100.00;102000.69;4999030;28;20030;-83
2022/09/21 03:06:23;;;;;;;1999.90;999.90;;;7.20;99.90;;;5.83;100.00;102006.81;4982576;28;20117;-81
2022/09/21 03:08:49;;;;;;;1034.00;513.85;;;7.20;99.90;;;5.84;100.00;102012.91;5008949;28;20120;-82
2022/09/21 03:11:21;;;;;;;9.27;3.30;;;;;;;5.81;100.00;102011.19;4981087;28;20034;-83
2022/09/21 03:13:46;;;;;;;11.73;2.53;;;7.20;99.90;;;5.83;100.00;102012.03;4998944;28;20046;-83
2022/09/21 03:16:12;;;;;;;6.53;1.52;;;7.20;99.90;;;5.84;100.00;102007.66;4997481;28;20061;-81
2022/09/21 03:18:39;;;;;;;1.35;1.08;;;7.20;99.90;;;5.88;100.00;102023.31;4980128;28;20061;-81
2022/09/21 03:21:05;;;;;;;8.13;2.63;;;7.30;99.90;;;5.90;100.00;102016.34;4996072;28;20034;-82
2022/09/21 03:23:31;;;;;;;14.80;3.47;;;7.30;99.90;;;5.94;100.00;102015.47;4997766;28;20023;-83
2022/09/21 03:26:04;;;;;;;7.05;2.17;;;7.30;99.90;;;5.97;100.00;102021.56;4997267;28;20030;-83
2022/09/21 03:28:30;;;;;;;8.60;3.85;;;7.30;99.90;;;6.00;100.00;102024.13;4998741;28;20018;-82
2022/09/21 03:30:56;;;;;;;5.57;3.38;;;7.30;99.90;;;6.03;100.00;102019.75;4995068;28;20049;-83
2022/09/21 03:33:24;;;;;;;7.55;3.90;;;7.40;99.90;;;6.10;100.00;102017.97;4995273;28;20114;-82
2022/09/21 03:35:59;;;;;;;9.23;3.65;;;;;;;6.14;100.00;102028.41;4902872;28;2454686;-83
2022/09/21 03:38:25;;;;;;;14.50;3.90;;;7.40;99.90;;;6.08;100.00;102022.34;5010306;28;20046;-82
2022/09/21 03:40:52;;;;;;;8.10;3.67;;;7.40;99.90;;;6.06;100.00;102021.50;4998111;28;20033;-82
2022/09/21 03:43:22;;;;;;;7.65;3.58;;;7.40;99.90;;;5.99;100.00;102022.41;4996230;28;20407;-83
2022/09/21 03:45:48;;;;;;;9.98;3.33;;;7.40;99.90;;;6.01;100.00;102023.28;4996518;28;20077;-83
2022/09/21 03:48:15;;;;;;;5.80;2.75;;;7.40;99.90;;;6.06;100.00;102043.25;4981499;28;20030;-82
2022/09/21 03:50:41;;;;;;;5.93;2.40;;;7.50;99.90;;;6.10;100.00;102031.06;5000145;28;20118;-83
2022/09/21 03:53:08;;;;;;;7.32;2.90;;;7.50;99.90;;;6.09;100.00;102035.41;5000751;28;20394;-83
2022/09/21 03:55:38;;;;;;;3.90;2.58;;;7.50;99.90;;;6.10;100.00;102028.44;5017918;28;20026;-82
2022/09/21 03:58:05;;;;;;;6.25;2.67;;;7.40;99.90;;;6.11;100.00;102036.28;5001770;28;20038;-83
2022/09/21 04:00:31;;;;;;;36.17;4.22;;;7.40;99.90;;;6.08;100.00;102025.81;5001641;28;20035;-83
2022/09/21 04:02:58;;;;;;;6.57;2.40;;;7.40;99.90;;;6.06;100.00;102035.41;4984887;28;20019;-83
2022/09/21 04:05:24;;;;;;;5.45;2.22;;;7.40;99.90;;;6.05;100.00;102027.63;4984244;28;20042;-81
2022/09/21 04:08:01;;;;;;;10.27;2.78;;;7.40;99.90;;;6.07;100.00;102039.78;5000257;28;20030;-82
2022/09/21 04:10:32;;;;;;;3.60;2.58;;;7.40;99.90;;;6.03;100.00;102040.69;5000989;28;20022;-82
2022/09/21 04:13:00;;;;;;;9.50;5.15;;;7.40;99.90;;;6.03;100.00;102039.81;5000489;28;20375;-82
2022/09/21 04:15:26;;;;;;;14.90;6.63;;;7.40;99.90;;;6.02;100.00;102038.94;5000407;28;20483;-82
2022/09/21 04:17:52;;;;;;;19.05;7.15;;;7.40;99.90;;;6.04;100.00;102047.63;4997528;28;20030;-82
2022/09/21 04:20:31;;;;;;;17.48;7.78;;;7.40;99.90;;;6.03;100.00;102042.44;4995153;28;20038;-83
2022/09/21 04:22:57;;;;;;;27.70;10.18;;;7.30;99.90;;;6.02;100.00;102043.31;4996450;28;20029;-83
2022/09/21 04:25:22;;;;;;;9.57;4.85;;;7.30;99.90;;;6.01;100.00;102046.81;4996000;28;20053;-83
2022/09/21 04:27:57;;;;;;;13.32;5.57;;;7.30;99.90;;;5.98;100.00;102041.59;4997633;28;20145;-82
2022/09/21 04:30:23;;;;;;;6.40;4.88;;;7.30;99.90;;;5.93;100.00;102042.44;5012417;28;20033;-83
2022/09/21 04:32:49;;;;;;;47.47;7.30;;;7.30;99.90;;;5.92;100.00;102045.09;4995936;28;20062;-81
2022/09/21 04:35:15;;;;;;;5.63;4.07;;;7.20;99.90;;;5.88;100.00;102039.00;4996152;28;20053;-83
2022/09/21 04:37:46;;;;;;;8.02;3.50;;;7.20;99.90;;;5.85;100.00;102040.75;4996960;28;20045;-81
2022/09/21 04:40:12;;;;;;;8.18;4.38;;;7.20;99.90;;;5.83;100.00;102043.41;4996043;28;20668;-81
2022/09/21 04:42:38;;;;;;;11.20;5.78;;;7.20;99.90;;;5.81;100.00;102039.94;4992365;28;20026;-83
2022/09/21 04:45:04;;;;;;;6.38;5.00;;;7.10;99.90;;;5.81;100.00;102047.78;4979764;28;20034;-82
2022/09/21 04:47:30;;;;;;;5.82;4.28;;;7.20;99.90;;;5.84;100.00;102047.75;4998957;28;20026;-82
2022/09/21 04:50:05;;;;;;;652.00;17.65;;;;;;;5.86;100.00;102047.75;4997248;28;20072;-83
2022/09/21 04:52:31;;;;;;;899.00;25.77;;;7.10;99.90;;;5.85;100.00;102044.25;4994667;28;20061;-82
2022/09/21 04:54:57;;;;;;;48.83;4.65;;;7.20;99.90;;;5.88;100.00;102046.84;4980517;28;20034;-82
2022/09/21 04:57:22;;;;;;;76.30;7.68;;;7.20;99.90;;;5.91;100.00;102046.81;4996597;28;20026;-81
2022/09/21 04:59:54;;;;;;;14.85;5.60;;;7.20;99.90;;;5.95;100.00;102053.78;4997242;28;20045;-82
2022/09/21 05:02:20;;;;;;;5.70;3.95;;;7.20;99.90;;;5.95;100.00;102043.34;4980117;28;20035;-82
2022/09/21 05:05:21;;;;;;;8.23;3.63;;;7.30;99.90;;;5.99;100.00;102051.19;5083762;23;20502;-84
2022/09/21 05:15:41;;;;;;;7.47;4.60;;;7.30;99.90;;;6.06;100.00;102058.97;4924362;29;20040;-85
2022/09/21 05:18:40;;;;;;;12.23;5.80;;;7.30;99.90;;;6.16;100.00;102067.63;4846572;29;20046;-87
2022/09/21 05:22:02;;;;;;;;;;;;;;;;;;;;;
2022/09/21 05:33:00;;;;;;;6.38;3.85;;;7.60;99.90;;;6.49;100.00;102086.56;4821628;29;20053;-86
2022/09/21 05:53:13;;;;;;;;;;;;;;;;;;;;;
2022/09/21 06:07:09;;;;;;;13.13;6.47;;;9.10;99.90;;;9.00;100.00;102113.94;5051977;23;20062;-85
2022/09/21 06:18:09;;;;;;;11.10;5.68;;;9.90;99.90;;;10.83;100.00;102124.97;4932378;29;20163;-85
2022/09/21 06:28:31;;;;;;;8.07;4.47;;;11.90;99.90;;;14.16;97.89;102130.13;4850746;29;20048;-86
2022/09/21 06:38:34;;;;;;;7.73;3.47;;;16.00;99.90;;;22.46;62.13;102140.22;4827654;29;20091;-87
2022/09/21 06:48:00;;;;;;;6.57;2.15;;;;;;;28.28;48.14;102150.88;4859561;29;20611;-84
2022/09/21 06:54:11;;;;;;;6.28;1.65;;;;;;;29.27;45.06;102149.88;4861545;29;20087;-84
2022/09/21 07:05:21;;;;;;;6.53;1.83;;;25.70;99.90;;;28.91;44.44;102181.63;4855259;29;20051;-84
2022/09/21 07:19:01;;;;;;;5.25;1.48;;;27.60;98.70;;;29.36;43.43;102195.03;4761887;30;20477;-83
2022/09/21 07:26:33;;;;;;;8.00;1.27;;;27.20;98.90;;;27.80;45.68;102206.13;4785346;29;20049;-84
2022/09/21 07:33:21;;;;;;;6.15;1.33;;;27.60;98.30;;;28.40;45.32;102217.38;4825644;29;20050;-85
2022/09/21 07:36:12;;;;;;;;;;;;;;;;;;;;;
2022/09/21 07:39:42;;;;;;;;;;;;;;;;;;;;;
2022/09/21 07:42:40;;;;;;;6.40;1.13;;;28.50;98.40;;;28.96;45.58;102222.66;4933723;29;21510;-84
2022/09/21 07:45:41;;;;;;;4.97;1.20;;;28.60;97.90;;;28.73;45.80;102219.59;4893631;29;20075;-84
2022/09/21 07:49:09;;;;;;;4.60;1.30;;;;;;;28.57;44.78;102231.09;4891725;29;20061;-86
2022/09/21 07:52:52;;;;;;;5.07;1.17;;;28.90;96.70;;;28.71;44.52;102230.59;4933858;28;20047;-85
2022/09/21 07:59:30;;;;;;;;;;;;;;;;;;;;;
2022/09/21 08:02:12;;;;;;;3.67;1.20;;;;;;;27.11;49.19;102221.66;4986974;28;20037;-85
2022/09/21 08:05:52;;;;;;;;;;;;;;;;;;;;;
2022/09/21 08:08:22;;;;;;;3.70;1.00;;;28.30;97.30;;;27.54;48.75;102223.03;4971963;28;20133;-85
2022/09/21 08:11:11;;;;;;;3.55;0.90;;;;;;;26.93;48.66;102218.81;4961176;28;20038;-86
2022/09/21 08:13:52;;;;;;;2.90;0.70;;;27.70;97.40;;;26.11;51.57;102213.69;4972999;28;20042;-85
2022/09/21 08:16:21;;;;;;;6.85;0.88;;;27.60;97.60;;;26.07;51.13;102212.25;4973399;28;20034;-85
2022/09/21 08:19:12;;;;;;;4.00;0.77;;;;;;;25.89;50.92;102218.28;4990835;28;20030;-86
2022/09/21 08:22:41;;;;;;;3.03;0.98;;;27.50;97.50;;;25.97;50.34;102209.53;4990067;28;20038;-86
2022/09/21 08:25:10;;;;;;;2.17;0.70;;;;;;;26.21;49.46;102214.56;4975808;28;20027;-85
2022/09/21 08:27:59;;;;;;;4.03;0.85;;;27.40;95.70;;;25.30;47.12;102192.00;4976540;28;20037;-85
2022/09/21 08:30:30;;;;;;;1.77;0.55;;;;;;;25.06;49.91;102203.00;4993502;28;20027;-86
2022/09/21 08:33:56;;;;;;;3.65;0.70;;;26.10;97.40;;;24.30;52.57;102205.69;4977964;28;20583;-85
2022/09/21 08:36:22;;;;;;;1.05;0.43;;;;;;;24.77;50.47;102193.72;4977902;28;20030;-84
2022/09/21 08:39:00;;;;;;;0.98;0.47;;;26.30;98.00;;;25.21;50.91;102207.13;4977485;28;20038;-86
2022/09/21 08:42:27;;;;;;;2.58;0.50;;;26.40;96.50;;;25.08;48.14;102193.81;4977915;28;20057;-86
2022/09/21 08:45:37;;;;;;;;;;;;;;;;;;;;;
2022/09/21 08:48:31;;;;;;;1.95;0.63;;;;;;;24.61;52.91;102204.03;4974791;28;20168;-84
2022/09/21 08:51:12;;;;;;;0.90;0.40;;;26.10;98.60;;;25.33;52.45;102203.34;4994783;28;20062;-85
2022/09/21 08:53:59;;;;;;;1.05;0.40;;;;;;;24.92;51.44;102198.78;4978650;28;20035;-85
2022/09/21 08:56:51;;;;;;;0.98;0.40;;;24.70;96.50;;;24.39;49.19;102187.94;4972786;28;20521;-84
2022/09/21 08:59:29;;;;;;;1.85;0.60;;;;;;;22.68;56.97;102186.00;4966880;28;20124;-85
2022/09/21 09:03:02;;;;;;;3.60;0.70;;;23.10;99.90;;;20.79;60.00;102198.41;4986072;28;20035;-85
2022/09/21 09:13:35;;;;;;;3.55;0.68;;;19.20;99.90;;;17.35;72.68;102195.47;4928069;28;20040;-85
2022/09/21 09:16:49;;;;;;;;;;;18.70;99.90;;;16.63;75.01;102185.72;4976066;28;20043;-83
2022/09/21 09:19:50;;;;;;;6.30;0.60;;;;;;;16.43;76.71;102190.22;4978358;28;20362;-84
2022/09/21 09:22:44;;;;;;;1.38;0.60;;;;;;;16.06;75.65;102188.44;4929638;29;20050;-85
2022/09/21 09:25:26;;;;;;;2.25;0.55;;;17.20;99.90;;;15.99;75.44;102188.72;4918376;29;20087;-84
2022/09/21 09:28:14;;;;;;;1.30;0.40;;;;;;;16.11;73.17;102183.78;4959699;28;20043;-82
2022/09/21 09:30:45;;;;;;;1.08;0.40;;;;;;;16.07;72.11;102179.53;4962998;28;20115;-84
2022/09/21 09:33:43;;;;;;;1.15;0.40;;;17.40;99.90;;;16.85;75.54;102189.09;4992989;28;20039;-85
2022/09/21 09:36:20;;;;;;;0.80;0.38;;;17.90;99.90;;;17.51;73.46;102190.19;4993990;28;20027;-84
2022/09/21 09:39:13;;;;;;;1.08;0.30;;;18.40;99.90;;;17.85;66.12;102175.09;4990197;28;20062;-84
2022/09/21 09:42:39;;;;;;;1.73;0.28;;;18.60;99.90;;;17.95;66.25;102181.66;4979267;28;20026;-84
2022/09/21 09:45:41;;;;;;;1.50;0.30;;;;;;;17.40;64.19;102180.09;4923652;28;20059;-85
2022/09/21 09:49:11;;;;;;;4.10;0.70;;;18.30;99.90;;;16.99;66.71;102175.09;4986199;28;20074;-85
2022/09/21 09:51:59;;;;;;;2.35;0.40;;;;;;;16.81;66.18;102175.09;4977437;28;20035;-84
2022/09/21 09:54:43;;;;;;;0.35;0.30;;;;;;;16.85;64.44;102177.63;4994751;28;20070;-84
2022/09/21 09:57:21;;;;;;;0.73;0.25;;;17.90;99.90;;;17.15;66.95;102181.38;4997758;28;20035;-84
2022/09/21 10:00:22;;;;;;;1.60;0.40;;;18.10;99.90;;;17.60;66.65;102187.03;4982258;28;20037;-85
2022/09/21 10:04:16;;;;;;;;;;;;;;;;;;;;;
2022/09/21 10:07:13;;;;;;;;;;;;;;;;;;;;;
2022/09/21 10:13:01;;;;;;;4.40;0.30;;;18.30;99.90;;;17.23;62.56;102167.66;4909933;29;20056;-84
2022/09/21 10:16:50;;;;;;;0.60;0.30;;;;;;;17.11;63.48;102173.63;4966245;28;20465;-85
2022/09/21 10:20:18;;;;;;;0.43;0.30;;;18.30;99.90;;;17.51;63.34;102172.38;5002025;28;20035;-85
2022/09/21 10:23:31;;;;;;;1.40;0.30;;;18.20;99.90;;;17.04;62.70;102172.19;4982921;28;20039;-84
2022/09/21 10:33:02;;;;;;;0.38;0.20;;;18.60;99.90;;;17.74;63.86;102175.66;4981159;28;20129;-83
2022/09/21 10:35:49;;;;;;;0.30;0.20;;;18.60;99.90;;;17.63;62.65;102171.75;4957242;28;20416;-83
2022/09/21 10:38:38;;;;;;;1.70;0.30;;;18.60;99.90;;;17.88;61.51;102178.44;4963733;28;20459;-83
2022/09/21 10:41:18;;;;;;;1.98;0.22;;;18.60;99.90;;;17.74;60.18;102165.84;4984271;28;20090;-84
2022/09/21 10:43:50;;;;;;;1.60;0.40;;;18.70;99.90;;;17.87;61.20;102173.22;4979603;28;20030;-85
2022/09/21 10:46:39;;;;;;;1.35;0.30;;;18.80;99.90;;;18.20;60.86;102171.34;4994850;28;20041;-83
2022/09/21 10:52:31;;;;;;;2.53;0.68;;;;;;;18.63;59.16;102165.38;4994381;28;20039;-84
2022/09/21 10:55:00;;;;;;;2.90;0.60;;;19.20;99.90;;;18.36;58.39;102165.16;4993812;28;20034;-84
2022/09/21 10:58:14;;;;;;;1.30;0.40;;;;;;;18.06;61.61;102175.75;4977471;28;20045;-83
2022/09/21 11:01:37;;;;;;;250.35;46.00;;;19.00;99.90;;;17.55;60.23;102151.78;4976815;28;20043;-83
2022/09/21 11:04:48;;;;;;;3.95;1.63;;;;;;;16.93;61.24;102159.44;4950658;28;20415;-83
2022/09/21 11:08:15;;;;;;;3.30;0.50;;;18.10;99.90;;;16.75;63.86;102167.38;4965359;28;20492;-83
2022/09/21 11:11:43;;;;;;;0.55;0.30;;;17.70;99.90;;;16.45;63.01;102156.44;4953852;28;20118;-83
2022/09/21 11:14:44;;;;;;;1.38;0.30;;;17.50;99.90;;;16.40;66.55;102163.78;4997287;28;20125;-83
2022/09/21 11:17:49;;;;;;;1.88;0.50;;;17.40;99.90;;;16.26;66.08;102152.94;4980072;28;20070;-83
2022/09/21 11:20:53;;;;;;;9.15;1.73;;;17.40;99.90;;;16.36;64.70;102156.91;4960635;28;20101;-83
2022/09/21 11:24:02;;;;;;;237.38;49.00;;;17.50;99.90;;;16.59;66.61;102161.97;4991006;28;20038;-82
2022/09/21 11:27:17;;;;;;;0.60;0.45;;;17.60;99.90;;;16.84;66.28;102166.09;4978682;28;20109;-83
2022/09/21 11:30:22;;;;;;;0.57;0.30;;;17.60;99.90;;;16.70;63.70;102164.09;4977251;28;20026;-82
2022/09/21 11:33:26;;;;;;;0.88;0.40;;;17.60;99.90;;;16.83;64.30;102168.84;4976016;28;20051;-83
2022/09/21 11:36:07;;;;;;;0.20;0.20;;;17.80;99.90;;;17.18;63.42;102167.03;4977230;28;20088;-81
2022/09/21 11:39:11;;;;;;;0.85;0.52;;;17.90;99.90;;;17.14;63.72;102168.13;4976239;28;20117;-81
2022/09/21 11:46:07;;;;;;;0.70;0.30;;;17.80;99.90;;;16.58;63.76;102157.56;4975610;28;20129;-83
2022/09/21 11:49:10;;;;;;;2.58;0.47;;;17.60;99.90;;;16.45;64.82;102153.78;4981306;28;20073;-83
2022/09/21 11:55:10;;;;;;;0.63;0.20;;;17.50;99.90;;;16.48;65.42;102161.63;4974810;28;20034;-82
2022/09/21 11:58:21;;;;;;;1.08;0.20;;;17.30;99.90;;;16.20;63.71;102152.31;4979420;28;20041;-84
2022/09/21 12:01:19;;;;;;;1.13;0.20;;;;;;;16.25;65.66;102172.50;4961601;28;20061;-83
2022/09/21 12:04:17;;;;;;;2.17;0.20;;;17.20;99.90;;;16.18;65.99;102164.81;4958410;28;20110;-82
2022/09/21 12:07:29;;;;;;;1.23;0.40;;;;;;;16.01;63.91;102156.78;4960704;28;20038;-82
2022/09/21 12:10:21;;;;;;;0.90;0.30;;;17.00;99.90;;;15.83;65.17;102160.28;4994648;28;20042;-81
2022/09/21 12:13:10;;;;;;;0.40;0.30;;;16.80;99.90;;;15.69;65.00;102160.88;4977843;28;20023;-83
2022/09/21 12:16:00;;;;;;;2.60;0.40;;;16.70;99.90;;;15.67;66.43;102165.41;4962279;28;20071;-82
2022/09/21 12:19:12;;;;;;;2.75;0.30;;;16.70;99.90;;;15.69;64.75;102151.13;4978164;28;20022;-83
2022/09/21 12:29:19;;;;;;;3.63;0.43;;;16.60;99.90;;;15.55;62.37;102143.78;4954232;29;20130;-83
2022/09/21 12:36:32;;;;;;;;;;;16.70;99.90;;;15.92;64.67;102147.44;4917637;29;20060;-84
2022/09/21 12:39:50;;;;;;;0.13;0.13;;;;;;;15.97;63.73;102141.91;4911390;29;19918;-84
2022/09/21 12:47:12;;;;;;;0.43;0.28;;;16.90;99.90;;;15.74;62.20;102135.88;4935668;28;20043;-82
2022/09/21 12:50:43;;;;;;;0.32;0.20;;;16.80;99.90;;;15.67;64.01;102146.81;4952485;28;20039;-83
2022/09/21 13:01:51;;;;;;;1.90;0.20;;;18.10;99.90;;;15.51;61.58;102128.06;4955899;29;20043;-83
2022/09/21 13:05:19;;;;;;;1.50;0.20;;;16.60;99.90;;;15.69;64.42;102142.31;4884611;29;20049;-83
2022/09/21 13:08:51;;;;;;;0.13;0.10;;;16.70;99.90;;;15.64;59.95;102131.88;4866567;29;20049;-83
2022/09/21 13:12:08;;;;;;;0.63;0.20;;;;;;;15.56;62.06;102136.69;4830008;29;20045;-83
2022/09/21 13:15:01;;;;;;;0.15;0.15;;;;;;;15.59;63.29;102137.41;4898066;29;20047;-83
2022/09/21 13:18:10;;;;;;;1.55;0.68;;;;;;;15.25;63.00;102137.16;4951688;29;20067;-83
2022/09/21 13:20:53;;;;;;;0.20;0.10;;;;;;;15.31;62.79;102140.44;4903846;29;20328;-83
2022/09/21 13:27:19;;;;;;;1.92;0.20;;;16.40;99.90;;;15.20;61.83;102137.38;5027651;23;20093;-83
2022/09/21 13:30:31;;;;;;;1.35;0.30;;;15.60;99.90;;;15.16;62.48;102131.34;4973479;28;20031;-83
2022/09/21 13:33:22;;;;;;;5.32;0.40;;;16.30;99.90;;;15.36;63.07;102134.94;4994157;28;20117;-82
2022/09/21 13:36:34;;;;;;;1.30;0.10;;;16.40;99.90;;;15.44;62.49;102135.41;4985770;28;20709;-83
2022/09/21 13:39:59;;;;;;;1.08;0.30;;;16.40;99.90;;;15.17;62.42;102135.72;4962706;28;20039;-81
2022/09/21 13:46:31;;;;;;;0.30;0.30;;;16.10;99.90;;;14.93;64.23;102126.19;5022659;23;20093;-82
2022/09/21 13:53:21;;;;;;;1.85;0.20;;;;;;;14.77;64.03;102128.59;4944344;29;20063;-82
2022/09/21 13:57:19;;;;;;;1.35;0.20;;;15.90;99.90;;;14.85;63.13;102115.03;4947778;28;20097;-83
2022/09/21 14:00:13;;;;;;;;;;;;;;;;;;;;;
2022/09/21 14:03:29;;;;;;;2.47;0.20;;;15.90;99.90;;;14.79;63.25;102124.09;4890933;29;20066;-83
2022/09/21 14:07:13;;;;;;;0.43;0.20;;;15.90;99.90;;;14.82;64.28;102123.97;4987009;23;20055;-83
2022/09/21 14:10:38;;;;;;;;;;;;;;;;;;;;;
2022/09/21 14:17:40;;;;;;;0.75;0.20;;;16.00;99.90;;;14.84;64.51;102110.63;4973932;28;20034;-81
2022/09/21 14:20:44;;;;;;;;;;;;;;;;;;;;;
2022/09/21 14:27:30;;;;;;;0.65;0.40;;;15.80;99.90;;;14.74;64.83;102121.63;5011046;23;20046;-82
2022/09/21 14:31:23;;;;;;;;;;;;;;;;;;;;;
2022/09/21 14:34:41;;;;;;;3.90;0.20;;;15.70;99.90;;;14.73;64.68;102113.78;4993059;28;20045;-82
2022/09/21 14:41:52;;;;;;;1.65;0.22;;;15.70;99.90;;;14.66;65.86;102122.88;4946593;29;19919;-82
2022/09/21 14:46:12;;;;;;;2.25;0.30;;;15.80;99.90;;;14.79;65.90;102117.94;4952823;23;20022;-83
2022/09/21 14:49:30;;;;;;;;;;;;;;;;;;;;;
2022/09/21 14:57:22;;;;;;;0.30;0.20;;;15.80;99.90;;;14.77;64.88;102116.22;4947316;28;20058;-82
2022/09/21 15:00:49;;;;;;;0.43;0.30;;;15.70;99.90;;;14.66;64.53;102114.94;4876446;29;20203;-82
2022/09/21 15:11:30;;;;;;;1.38;0.30;;;15.70;99.90;;;14.67;66.72;102125.47;4968380;28;20450;-83
2022/09/21 15:15:00;;;;;;;0.90;0.20;;;15.70;99.90;;;14.65;64.79;102118.53;4986657;28;20030;-83
2022/09/21 15:18:40;;;;;;;0.10;0.10;;;15.60;99.90;;;14.49;64.92;102116.47;4984871;28;20030;-83
2022/09/21 15:28:52;;;;;;;1.13;0.30;;;15.60;99.90;;;14.54;66.12;102119.78;5041416;23;20058;-84
2022/09/21 15:31:51;;;;;;;0.63;0.25;;;15.60;99.90;;;14.52;65.13;102110.19;4977757;28;20093;-83
2022/09/21 15:37:22;;;;;;;0.77;0.30;;;;;;;14.52;65.78;102105.72;4999249;23;20102;-81
2022/09/21 15:40:13;;;;;;;;;;;;;;;;;;;;;
2022/09/21 15:43:14;;;;;;;;;;;;;;;;;;;;;
2022/09/21 15:46:24;;;;;;;;;;;;;;;;;;;;;
2022/09/21 15:48:51;;;;;;;2.90;0.20;;;;;;;14.28;66.03;102112.03;4984970;28;20042;-85
2022/09/21 15:56:02;;;;;;;0.60;0.30;;;15.20;99.90;;;14.16;66.53;102108.94;5061487;23;20062;-85